Pinos Puente, Spain
Current Conditions -  °F | °C
As of 6:30 PM on Tuesday 21 Oct 2014 (Local Time) from LEGR Reporting Station
Clear Clear  
Wind Chill: 30°   Ceiling: Unl
Heat Index: 30°   Visibility: 6mi
Dew Point:   Wind: 2mph
Humidity: 23%   Direction: NA
Pressure: 30.24"   Gusts: NA
Location:  37.25°N, 3.75°W
Report Text: LEGR 211630Z VRB02KT CAVOK 30/07 Q1024
Loading
Personal Weather Stations






























Interactive Weather Map
Tropical Storm Tracking
New forecast layout! Learn more

10-Day Weather Forecast

Advertisements
Track Severe Weather on mobile